»·PEaware :: SWA2194 KPHX-KDAL

SWA2194 :: KPHX-KDAL

FLIGHT INFORMATION

Flight Status: Arrived
Operator:
Southwest Airlines
More flights by this operator :: More flights under this callsign
Pilot: Austin C. (26034)
Aircraft: BOEING 737-800
(B738)
More flights by this aircraft type
Origin: KPHX Phoenix Sky Harbor Intl
United States
Destination: KDAL Dallas Love
United States
More flights between these airports :: More routes between these airports
Route: +BROAK1 MAXXO TXO TURKI JFRYE3
File this flight plan on PilotEdge
Remarks: (New to Pilotedge. Thank you for your patience.)
Altitude:
(Current/Filed)
350ft
Speed:
(Current/Filed)
350kts
Departed: 31-Aug-19 06:02 PM
Arrived: 31-Aug-19 08:09 PM
Distance/Time
Traveled:
762nm/2:06
Distance/Time
To Go:
Arrived

Flight Plot

Page will automatically refresh every two minutes.

Flight plan parsing failed; only flown route is shown


Map Options




Map Legend


Flown Route
Filed Route
Departure Airport
Arrival Airport
Navaid (VOR, NDB)
Fix

Horizontal Profiles

Position Reports

Time Latitude Longitude Heading Altitude Ground
Speed
31-Aug-19 17:09 33.433657 -111.996196 314 1138ft 0kts
31-Aug-19 17:10 33.433657 -111.996196 314 1138ft 0kts
31-Aug-19 17:11 33.433657 -111.996196 314 1138ft 0kts
31-Aug-19 17:12 33.433657 -111.996196 314 1138ft 0kts
31-Aug-19 17:13 33.433657 -111.996196 314 1138ft 0kts
31-Aug-19 17:14 33.433657 -111.996196 314 1138ft 0kts
31-Aug-19 17:15 33.433657 -111.996196 314 1138ft 0kts
31-Aug-19 17:16 33.433657 -111.996196 314 1138ft 0kts
31-Aug-19 17:17 33.433657 -111.996196 314 1138ft 0kts
31-Aug-19 17:18 33.433657 -111.996196 314 1138ft 0kts
31-Aug-19 17:19 33.433657 -111.996196 314 1138ft 0kts
31-Aug-19 17:20 33.433657 -111.996196 314 1138ft 0kts
31-Aug-19 17:21 33.433657 -111.996196 314 1138ft 0kts
31-Aug-19 17:22 33.433657 -111.996196 314 1138ft 0kts
31-Aug-19 17:23 33.433657 -111.996196 314 1138ft 0kts
31-Aug-19 17:24 33.433657 -111.996196 314 1138ft 0kts
31-Aug-19 17:25 33.433657 -111.996196 314 1138ft 0kts
31-Aug-19 17:26 33.433657 -111.996196 314 1138ft 0kts
31-Aug-19 17:27 33.433657 -111.996196 314 1138ft 0kts
31-Aug-19 17:28 33.433657 -111.996196 314 1138ft 0kts
31-Aug-19 17:29 33.433657 -111.996196 314 1138ft 0kts
31-Aug-19 17:30 33.433657 -111.996196 314 1138ft 0kts
31-Aug-19 17:31 33.433657 -111.996196 314 1138ft 0kts
31-Aug-19 17:32 33.433657 -111.996196 314 1138ft 0kts
31-Aug-19 17:33 33.433657 -111.996196 314 1138ft 0kts
31-Aug-19 17:34 33.433657 -111.996196 314 1138ft 0kts
31-Aug-19 17:35 33.433657 -111.996196 314 1138ft 0kts
31-Aug-19 17:36 33.433657 -111.996196 314 1138ft 0kts
31-Aug-19 17:37 33.433657 -111.996196 314 1138ft 0kts
31-Aug-19 17:38 33.433657 -111.996196 314 1138ft 0kts
31-Aug-19 17:39 33.433657 -111.996196 314 1138ft 0kts
31-Aug-19 17:40 33.433657 -111.996196 314 1138ft 0kts
31-Aug-19 17:41 33.433657 -111.996196 314 1138ft 0kts
31-Aug-19 17:42 33.433657 -111.996196 314 1138ft 0kts
31-Aug-19 17:43 33.433657 -111.996196 314 1138ft 0kts
31-Aug-19 17:44 33.433657 -111.996196 314 1138ft 0kts
31-Aug-19 17:45 33.433657 -111.996196 314 1139ft 0kts
31-Aug-19 17:46 33.433330 -111.995990 333 1139ft 2kts
31-Aug-19 17:47 33.432839 -111.995701 317 1139ft 1kts
31-Aug-19 17:48 33.432812 -111.995547 269 1138ft 0kts
31-Aug-19 17:49 33.432812 -111.995547 269 1138ft 0kts
31-Aug-19 17:50 33.432812 -111.995547 269 1138ft 0kts
31-Aug-19 17:51 33.432812 -111.995547 269 1138ft 0kts
31-Aug-19 17:52 33.432812 -111.995547 269 1138ft 0kts
31-Aug-19 17:54 33.432812 -111.995547 269 1138ft 0kts
31-Aug-19 17:55 33.432817 -111.998036 269 1138ft 26kts
31-Aug-19 17:56 33.432875 -112.007139 270 1138ft 30kts
31-Aug-19 17:57 33.432871 -112.017571 270 1138ft 33kts
31-Aug-19 17:58 33.432886 -112.026562 268 1138ft 0kts
31-Aug-19 17:59 33.432060 -112.026977 179 1138ft 0kts
31-Aug-19 18:00 33.432060 -112.026977 179 1138ft 0kts
31-Aug-19 18:01 33.431049 -112.025044 89 1138ft 31kts
31-Aug-19 18:02 33.431350 -111.987863 85 1540ft 189kts
31-Aug-19 18:03 33.436949 -111.922812 84 3849ft 223kts
31-Aug-19 18:04 33.441776 -111.844526 79 5625ft 278kts
31-Aug-19 18:05 33.455631 -111.746718 79 8431ft 294kts
31-Aug-19 18:06 33.470383 -111.640482 79 10694ft 326kts
31-Aug-19 18:07 33.490153 -111.500114 79 13350ft 352kts
31-Aug-19 18:08 33.511332 -111.352145 79 16149ft 367kts
31-Aug-19 18:09 33.528805 -111.232258 77 18192ft 377kts
31-Aug-19 18:10 33.560780 -111.112491 70 20115ft 387kts
31-Aug-19 18:10 33.589777 -111.009103 70 21560ft 399kts
31-Aug-19 18:12 33.631457 -110.859777 71 23567ft 412kts
31-Aug-19 18:13 33.668107 -110.727829 71 25286ft 421kts
31-Aug-19 18:14 33.705231 -110.593550 70 26863ft 429kts
31-Aug-19 18:14 33.736781 -110.478934 70 28086ft 437kts
31-Aug-19 18:15 33.774655 -110.340486 71 29439ft 445kts
31-Aug-19 18:17 33.819233 -110.176043 71 31091ft 449kts
31-Aug-19 18:17 33.850790 -110.059792 71 32399ft 445kts
31-Aug-19 18:18 33.888290 -109.921034 71 33825ft 440kts
31-Aug-19 18:19 33.925301 -109.783342 71 35103ft 436kts
31-Aug-19 18:20 33.962349 -109.644887 71 35320ft 450kts
31-Aug-19 18:21 33.999023 -109.507083 71 35316ft 448kts
31-Aug-19 18:22 34.035612 -109.368927 71 35322ft 449kts
31-Aug-19 18:23 34.072006 -109.229239 72 35318ft 449kts
31-Aug-19 18:24 34.108814 -109.088803 71 35321ft 446kts
31-Aug-19 18:25 34.145642 -108.947604 70 35321ft 440kts
31-Aug-19 18:26 34.181837 -108.808141 70 35321ft 441kts
31-Aug-19 18:27 34.217495 -108.670016 70 35321ft 441kts
31-Aug-19 18:28 34.252028 -108.535568 70 35321ft 441kts
31-Aug-19 18:29 34.287256 -108.397707 70 35311ft 441kts
31-Aug-19 18:30 34.321628 -108.262477 71 35290ft 441kts
31-Aug-19 18:31 34.356814 -108.123341 71 35284ft 441kts
31-Aug-19 18:32 34.383355 -107.991953 83 35287ft 444kts
31-Aug-19 18:33 34.386300 -107.851998 87 35279ft 445kts
31-Aug-19 18:34 34.388004 -107.696392 87 35259ft 445kts
31-Aug-19 18:35 34.389456 -107.550630 87 35203ft 445kts
31-Aug-19 18:36 34.390765 -107.401444 87 35183ft 445kts
31-Aug-19 18:37 34.391879 -107.254117 87 35183ft 446kts
31-Aug-19 18:38 34.392755 -107.117558 87 35183ft 446kts
31-Aug-19 18:39 34.393497 -106.976854 87 35183ft 444kts
31-Aug-19 18:40 34.394069 -106.837895 87 35183ft 440kts
31-Aug-19 18:41 34.394470 -106.706858 87 35183ft 439kts
31-Aug-19 18:42 34.394757 -106.567972 86 35182ft 439kts
31-Aug-19 18:43 34.395510 -106.426561 86 35182ft 439kts
31-Aug-19 18:44 34.396054 -106.292525 87 35183ft 439kts
31-Aug-19 18:45 34.396447 -106.160257 87 35178ft 439kts
31-Aug-19 18:46 34.396696 -106.033692 87 35199ft 439kts
31-Aug-19 18:47 34.396815 -105.901281 87 35318ft 438kts
31-Aug-19 18:48 34.396789 -105.762868 87 35393ft 438kts
31-Aug-19 18:49 34.396567 -105.604468 87 35393ft 438kts
31-Aug-19 18:50 34.396170 -105.454726 87 35309ft 438kts
31-Aug-19 18:51 34.395479 -105.281381 87 35233ft 439kts
31-Aug-19 18:52 34.394696 -105.133003 87 35230ft 439kts
31-Aug-19 18:53 34.393753 -104.985695 88 35229ft 444kts
31-Aug-19 18:54 34.392593 -104.837499 88 35230ft 447kts
31-Aug-19 18:55 34.391313 -104.688360 88 35232ft 447kts
31-Aug-19 18:56 34.389791 -104.538547 88 35232ft 446kts
31-Aug-19 18:57 34.388132 -104.389285 88 35225ft 447kts
31-Aug-19 18:58 34.386313 -104.246422 89 35228ft 447kts
31-Aug-19 18:59 34.384229 -104.095446 89 35222ft 447kts
31-Aug-19 19:00 34.382074 -103.947775 89 35208ft 446kts
31-Aug-19 19:01 34.379800 -103.807181 89 35201ft 448kts
31-Aug-19 19:02 34.377237 -103.661728 87 35261ft 446kts
31-Aug-19 19:03 34.374711 -103.520431 87 35256ft 448kts
31-Aug-19 19:04 34.371814 -103.372740 87 35258ft 447kts
31-Aug-19 19:05 34.369412 -103.256202 88 35253ft 448kts
31-Aug-19 19:06 34.366832 -103.136364 88 35245ft 449kts
31-Aug-19 19:07 34.363659 -102.996907 89 35229ft 451kts
31-Aug-19 19:08 34.360277 -102.854052 89 35216ft 451kts
31-Aug-19 19:09 34.356934 -102.719969 89 35219ft 450kts
31-Aug-19 19:10 34.353460 -102.585931 89 35226ft 451kts
31-Aug-19 19:11 34.349615 -102.442975 89 35223ft 450kts
31-Aug-19 19:12 34.345500 -102.296646 90 35213ft 452kts
31-Aug-19 19:13 34.341207 -102.152073 90 35200ft 451kts
31-Aug-19 19:14 34.336942 -102.011553 90 35179ft 452kts
31-Aug-19 19:15 34.332347 -101.866711 90 35177ft 451kts
31-Aug-19 19:16 34.328255 -101.744206 90 35172ft 452kts
31-Aug-19 19:17 34.323255 -101.597938 90 35175ft 452kts
31-Aug-19 19:18 34.318460 -101.460086 90 35181ft 451kts
31-Aug-19 19:19 34.313458 -101.320968 91 35179ft 450kts
31-Aug-19 19:20 34.307633 -101.165401 90 35173ft 450kts
31-Aug-19 19:21 34.295585 -101.016753 96 35168ft 455kts
31-Aug-19 19:22 34.278244 -100.867061 96 35134ft 460kts
31-Aug-19 19:23 34.260230 -100.714999 97 35111ft 462kts
31-Aug-19 19:24 34.241939 -100.562228 97 35111ft 462kts
31-Aug-19 19:25 34.223407 -100.409101 97 35112ft 462kts
31-Aug-19 19:26 34.204846 -100.257793 99 35109ft 462kts
31-Aug-19 19:27 34.177848 -100.106647 101 35110ft 463kts
31-Aug-19 19:28 34.150874 -99.956095 101 35110ft 463kts
31-Aug-19 19:29 34.123923 -99.806859 101 35111ft 462kts
31-Aug-19 19:30 34.096548 -99.656376 101 35109ft 463kts
31-Aug-19 19:31 34.069063 -99.506392 101 35093ft 463kts
31-Aug-19 19:32 34.043750 -99.369211 101 34943ft 464kts
31-Aug-19 19:33 34.012345 -99.220235 110 33474ft 464kts
31-Aug-19 19:34 33.967307 -99.078349 110 31692ft 452kts
31-Aug-19 19:35 33.923922 -98.939925 111 29894ft 435kts
31-Aug-19 19:36 33.882386 -98.808091 111 28152ft 422kts
31-Aug-19 19:37 33.839945 -98.673971 111 26657ft 433kts
31-Aug-19 19:38 33.797761 -98.541241 111 24857ft 420kts
31-Aug-19 19:39 33.756526 -98.412507 110 23064ft 406kts
31-Aug-19 19:40 33.717950 -98.291415 110 21296ft 389kts
31-Aug-19 19:41 33.680097 -98.173048 110 19646ft 371kts
31-Aug-19 19:42 33.643780 -98.059930 110 18077ft 355kts
31-Aug-19 19:43 33.609155 -97.952472 109 16589ft 342kts
31-Aug-19 19:44 33.575548 -97.848540 109 15187ft 328kts
31-Aug-19 19:45 33.543249 -97.748983 108 13886ft 316kts
31-Aug-19 19:46 33.511575 -97.651653 108 12582ft 309kts
31-Aug-19 19:47 33.480724 -97.557152 108 11279ft 301kts
31-Aug-19 19:48 33.452377 -97.464729 98 10051ft 289kts
31-Aug-19 19:49 33.447024 -97.369354 89 10034ft 289kts
31-Aug-19 19:50 33.443440 -97.273412 90 10045ft 289kts
31-Aug-19 19:51 33.439765 -97.177558 90 10055ft 288kts
31-Aug-19 19:52 33.436061 -97.083024 91 9243ft 275kts
31-Aug-19 19:53 33.432485 -96.993234 92 8436ft 269kts
31-Aug-19 19:54 33.421895 -96.906057 112 7546ft 266kts
31-Aug-19 19:55 33.387683 -96.828326 119 6627ft 259kts
31-Aug-19 19:56 33.331106 -96.833573 236 5957ft 261kts
31-Aug-19 19:57 33.280770 -96.889932 207 5333ft 245kts
31-Aug-19 19:59 33.220931 -96.923603 203 4731ft 237kts
31-Aug-19 20:00 33.162092 -96.955379 203 4108ft 233kts
31-Aug-19 20:01 33.107280 -96.984964 202 3608ft 218kts
31-Aug-19 20:02 33.056378 -97.012393 202 3155ft 217kts
31-Aug-19 20:03 33.003613 -97.015841 157 2814ft 191kts
31-Aug-19 20:04 32.969601 -96.986300 135 2479ft 164kts
31-Aug-19 20:05 32.941582 -96.954121 135 2236ft 155kts
31-Aug-19 20:06 32.914342 -96.922943 135 1913ft 147kts
31-Aug-19 20:07 32.888702 -96.893245 134 1139ft 140kts
31-Aug-19 20:08 32.863188 -96.863658 133 626ft 143kts
31-Aug-19 20:09 32.845134 -96.842614 136 488ft 20kts
31-Aug-19 20:10 32.844706 -96.844026 300 485ft 12kts
31-Aug-19 20:11 32.846800 -96.847657 294 483ft 16kts
31-Aug-19 20:12 32.846491 -96.848435 183 483ft 0kts
31-Aug-19 20:13 32.846481 -96.848436 183 483ft 0kts

Navigation Log

Ident Type
Flight plan parsing failed, navigation log unavailable